sensor_id;sensor_type;location;lat;lon;timestamp;temperature;humidity
33739;DHT22;20063;51.730;11.110;2023-02-28T00:00:25;0.60;99.90
33739;DHT22;20063;51.730;11.110;2023-02-28T00:02:51;0.60;99.90
33739;DHT22;20063;51.730;11.110;2023-02-28T00:05:19;0.60;99.90
33739;DHT22;20063;51.730;11.110;2023-02-28T00:07:46;0.50;99.90
33739;DHT22;20063;51.730;11.110;2023-02-28T00:10:14;0.50;99.90
33739;DHT22;20063;51.730;11.110;2023-02-28T00:12:40;0.50;99.90
33739;DHT22;20063;51.730;11.110;2023-02-28T00:15:07;0.50;99.90
33739;DHT22;20063;51.730;11.110;2023-02-28T00:17:33;0.40;99.90
33739;DHT22;20063;51.730;11.110;2023-02-28T00:19:58;0.40;99.90
33739;DHT22;20063;51.730;11.110;2023-02-28T00:22:27;0.40;99.90
33739;DHT22;20063;51.730;11.110;2023-02-28T00:24:53;0.50;99.90
33739;DHT22;20063;51.730;11.110;2023-02-28T00:27:18;0.50;99.90
33739;DHT22;20063;51.730;11.110;2023-02-28T00:29:46;0.60;99.90
33739;DHT22;20063;51.730;11.110;2023-02-28T00:32:12;0.60;99.90
33739;DHT22;20063;51.730;11.110;2023-02-28T00:34:37;0.60;99.90
33739;DHT22;20063;51.730;11.110;2023-02-28T00:37:05;0.60;99.90
33739;DHT22;20063;51.730;11.110;2023-02-28T00:39:31;0.60;99.90
33739;DHT22;20063;51.730;11.110;2023-02-28T00:41:56;0.60;99.90
33739;DHT22;20063;51.730;11.110;2023-02-28T00:44:22;0.60;99.90
33739;DHT22;20063;51.730;11.110;2023-02-28T00:46:47;0.60;99.90
33739;DHT22;20063;51.730;11.110;2023-02-28T00:49:16;0.70;99.90
33739;DHT22;20063;51.730;11.110;2023-02-28T00:51:41;0.70;99.90
33739;DHT22;20063;51.730;11.110;2023-02-28T00:54:07;0.70;99.90
33739;DHT22;20063;51.730;11.110;2023-02-28T00:56:32;0.70;99.90
33739;DHT22;20063;51.730;11.110;2023-02-28T00:58:58;0.70;99.90
33739;DHT22;20063;51.730;11.110;2023-02-28T01:01:23;0.70;99.90
33739;DHT22;20063;51.730;11.110;2023-02-28T01:03:49;0.70;99.90
33739;DHT22;20063;51.730;11.110;2023-02-28T01:06:14;0.70;99.90
33739;DHT22;20063;51.730;11.110;2023-02-28T01:08:40;0.60;99.90
33739;DHT22;20063;51.730;11.110;2023-02-28T01:11:11;0.60;99.90
33739;DHT22;20063;51.730;11.110;2023-02-28T01:13:37;0.60;99.90
33739;DHT22;20063;51.730;11.110;2023-02-28T01:16:04;0.50;99.90
33739;DHT22;20063;51.730;11.110;2023-02-28T01:18:29;0.60;99.90
33739;DHT22;20063;51.730;11.110;2023-02-28T01:20:56;0.50;99.90
33739;DHT22;20063;51.730;11.110;2023-02-28T01:23:22;0.50;99.90
33739;DHT22;20063;51.730;11.110;2023-02-28T01:25:49;0.50;99.90
33739;DHT22;20063;51.730;11.110;2023-02-28T01:28:15;0.50;99.90
33739;DHT22;20063;51.730;11.110;2023-02-28T01:30:41;0.50;99.90
33739;DHT22;20063;51.730;11.110;2023-02-28T01:33:07;0.50;99.90
33739;DHT22;20063;51.730;11.110;2023-02-28T01:35:34;0.50;99.90
33739;DHT22;20063;51.730;11.110;2023-02-28T01:37:59;0.50;99.90
33739;DHT22;20063;51.730;11.110;2023-02-28T01:40:25;0.50;99.90
33739;DHT22;20063;51.730;11.110;2023-02-28T01:42:51;0.50;99.90
33739;DHT22;20063;51.730;11.110;2023-02-28T01:45:26;0.50;99.90
33739;DHT22;20063;51.730;11.110;2023-02-28T01:47:54;0.50;99.90
33739;DHT22;20063;51.730;11.110;2023-02-28T01:50:24;0.40;99.90
33739;DHT22;20063;51.730;11.110;2023-02-28T01:52:52;0.40;99.90
33739;DHT22;20063;51.730;11.110;2023-02-28T01:55:20;0.40;99.90
33739;DHT22;20063;51.730;11.110;2023-02-28T01:57:51;0.40;99.90
33739;DHT22;20063;51.730;11.110;2023-02-28T02:00:21;0.40;99.90
33739;DHT22;20063;51.730;11.110;2023-02-28T02:02:51;0.40;99.90
33739;DHT22;20063;51.730;11.110;2023-02-28T02:05:23;0.40;99.90
33739;DHT22;20063;51.730;11.110;2023-02-28T02:07:55;0.40;99.90
33739;DHT22;20063;51.730;11.110;2023-02-28T02:21:47;0.50;99.90
33739;DHT22;20063;51.730;11.110;2023-02-28T02:27:36;0.50;99.90
33739;DHT22;20063;51.730;11.110;2023-02-28T02:36:02;0.40;99.90
33739;DHT22;20063;51.730;11.110;2023-02-28T02:44:19;0.40;99.90
33739;DHT22;20063;51.730;11.110;2023-02-28T02:46:50;0.40;99.90
33739;DHT22;20063;51.730;11.110;2023-02-28T02:49:35;0.40;99.90
33739;DHT22;20063;51.730;11.110;2023-02-28T02:52:14;0.40;99.90
33739;DHT22;20063;51.730;11.110;2023-02-28T02:54:45;0.40;99.90
33739;DHT22;20063;51.730;11.110;2023-02-28T02:57:18;0.40;99.90
33739;DHT22;20063;51.730;11.110;2023-02-28T02:59:45;0.40;99.90
33739;DHT22;20063;51.730;11.110;2023-02-28T03:02:14;0.40;99.90
33739;DHT22;20063;51.730;11.110;2023-02-28T03:04:45;0.40;99.90
33739;DHT22;20063;51.730;11.110;2023-02-28T03:07:11;0.40;99.90
33739;DHT22;20063;51.730;11.110;2023-02-28T03:09:37;0.30;99.90
33739;DHT22;20063;51.730;11.110;2023-02-28T03:12:03;0.40;99.90
33739;DHT22;20063;51.730;11.110;2023-02-28T03:15:07;0.40;99.90
33739;DHT22;20063;51.730;11.110;2023-02-28T03:23:09;0.40;99.90
33739;DHT22;20063;51.730;11.110;2023-02-28T03:25:52;0.30;99.90
33739;DHT22;20063;51.730;11.110;2023-02-28T03:31:03;0.30;99.90
33739;DHT22;20063;51.730;11.110;2023-02-28T03:34:06;0.30;99.90
33739;DHT22;20063;51.730;11.110;2023-02-28T03:36:37;0.30;99.90
33739;DHT22;20063;51.730;11.110;2023-02-28T03:39:17;0.30;99.90
33739;DHT22;20063;51.730;11.110;2023-02-28T03:41:59;0.30;99.90
33739;DHT22;20063;51.730;11.110;2023-02-28T03:44:48;0.30;99.90
33739;DHT22;20063;51.730;11.110;2023-02-28T03:47:19;0.30;99.90
33739;DHT22;20063;51.730;11.110;2023-02-28T03:52:26;0.30;99.90
33739;DHT22;20063;51.730;11.110;2023-02-28T03:54:56;0.30;99.90
33739;DHT22;20063;51.730;11.110;2023-02-28T03:57:32;0.30;99.90
33739;DHT22;20063;51.730;11.110;2023-02-28T04:00:06;0.30;99.90
33739;DHT22;20063;51.730;11.110;2023-02-28T04:02:32;0.20;99.90
33739;DHT22;20063;51.730;11.110;2023-02-28T04:05:00;0.20;99.90
33739;DHT22;20063;51.730;11.110;2023-02-28T04:07:29;0.20;99.90
33739;DHT22;20063;51.730;11.110;2023-02-28T04:10:03;0.20;99.90
33739;DHT22;20063;51.730;11.110;2023-02-28T04:12:28;0.20;99.90
33739;DHT22;20063;51.730;11.110;2023-02-28T04:14:54;0.20;99.90
33739;DHT22;20063;51.730;11.110;2023-02-28T04:17:19;0.20;99.90
33739;DHT22;20063;51.730;11.110;2023-02-28T04:19:45;0.20;99.90
33739;DHT22;20063;51.730;11.110;2023-02-28T04:22:10;0.20;99.90
33739;DHT22;20063;51.730;11.110;2023-02-28T04:24:36;0.20;99.90
33739;DHT22;20063;51.730;11.110;2023-02-28T04:27:02;0.20;99.90
33739;DHT22;20063;51.730;11.110;2023-02-28T04:29:30;0.10;99.90
33739;DHT22;20063;51.730;11.110;2023-02-28T04:31:57;0.20;99.90
33739;DHT22;20063;51.730;11.110;2023-02-28T04:34:24;0.20;99.90
33739;DHT22;20063;51.730;11.110;2023-02-28T04:36:50;0.20;99.90
33739;DHT22;20063;51.730;11.110;2023-02-28T04:39:16;0.10;99.90
33739;DHT22;20063;51.730;11.110;2023-02-28T04:41:44;0.20;99.90
33739;DHT22;20063;51.730;11.110;2023-02-28T04:44:09;0.20;99.90
33739;DHT22;20063;51.730;11.110;2023-02-28T04:46:35;0.10;99.90
33739;DHT22;20063;51.730;11.110;2023-02-28T04:49:00;0.10;99.90
33739;DHT22;20063;51.730;11.110;2023-02-28T04:51:26;0.10;99.90
33739;DHT22;20063;51.730;11.110;2023-02-28T04:53:52;0.00;99.90
33739;DHT22;20063;51.730;11.110;2023-02-28T04:56:19;0.00;99.90
33739;DHT22;20063;51.730;11.110;2023-02-28T04:58:45;0.10;99.90
33739;DHT22;20063;51.730;11.110;2023-02-28T05:01:26;0.10;99.90
33739;DHT22;20063;51.730;11.110;2023-02-28T05:03:55;0.10;99.90
33739;DHT22;20063;51.730;11.110;2023-02-28T05:06:22;0.00;99.90
33739;DHT22;20063;51.730;11.110;2023-02-28T05:08:49;0.00;99.90
33739;DHT22;20063;51.730;11.110;2023-02-28T05:11:20;0.00;99.90
33739;DHT22;20063;51.730;11.110;2023-02-28T05:13:46;-0.10;99.90
33739;DHT22;20063;51.730;11.110;2023-02-28T05:16:12;-0.10;99.90
33739;DHT22;20063;51.730;11.110;2023-02-28T05:18:38;-0.10;99.90
33739;DHT22;20063;51.730;11.110;2023-02-28T05:21:04;-0.10;99.90
33739;DHT22;20063;51.730;11.110;2023-02-28T05:23:30;-0.10;99.90
33739;DHT22;20063;51.730;11.110;2023-02-28T05:25:56;-0.10;99.90
33739;DHT22;20063;51.730;11.110;2023-02-28T05:28:21;-0.10;99.90
33739;DHT22;20063;51.730;11.110;2023-02-28T05:30:47;-0.10;99.90
33739;DHT22;20063;51.730;11.110;2023-02-28T05:33:13;-0.10;99.90
33739;DHT22;20063;51.730;11.110;2023-02-28T05:35:42;-0.20;99.90
33739;DHT22;20063;51.730;11.110;2023-02-28T05:38:10;-0.20;99.90
33739;DHT22;20063;51.730;11.110;2023-02-28T05:40:38;-0.20;99.90
33739;DHT22;20063;51.730;11.110;2023-02-28T05:43:04;-0.10;99.90
33739;DHT22;20063;51.730;11.110;2023-02-28T05:45:30;-0.10;99.90
33739;DHT22;20063;51.730;11.110;2023-02-28T05:47:55;-0.10;99.90
33739;DHT22;20063;51.730;11.110;2023-02-28T05:50:25;-0.10;99.90
33739;DHT22;20063;51.730;11.110;2023-02-28T05:52:51;-0.20;99.90
33739;DHT22;20063;51.730;11.110;2023-02-28T05:55:17;-0.20;99.90
33739;DHT22;20063;51.730;11.110;2023-02-28T05:57:46;-0.30;99.90
33739;DHT22;20063;51.730;11.110;2023-02-28T06:00:12;-0.30;99.90
33739;DHT22;20063;51.730;11.110;2023-02-28T06:02:40;-0.30;99.90
33739;DHT22;20063;51.730;11.110;2023-02-28T06:05:13;-0.20;99.90
33739;DHT22;20063;51.730;11.110;2023-02-28T06:07:40;-0.20;99.90
33739;DHT22;20063;51.730;11.110;2023-02-28T06:10:05;-0.30;99.90
33739;DHT22;20063;51.730;11.110;2023-02-28T06:12:31;-0.30;99.90
33739;DHT22;20063;51.730;11.110;2023-02-28T06:14:57;-0.30;99.90
33739;DHT22;20063;51.730;11.110;2023-02-28T06:17:22;-0.30;99.90
33739;DHT22;20063;51.730;11.110;2023-02-28T06:19:48;-0.30;99.90
33739;DHT22;20063;51.730;11.110;2023-02-28T06:22:13;-0.30;99.90
33739;DHT22;20063;51.730;11.110;2023-02-28T06:24:39;-0.20;99.90
33739;DHT22;20063;51.730;11.110;2023-02-28T06:27:05;-0.30;99.90
33739;DHT22;20063;51.730;11.110;2023-02-28T06:29:32;-0.40;99.90
33739;DHT22;20063;51.730;11.110;2023-02-28T06:31:58;-0.40;99.90
33739;DHT22;20063;51.730;11.110;2023-02-28T06:34:23;-0.40;99.90
33739;DHT22;20063;51.730;11.110;2023-02-28T06:36:51;-0.40;99.90
33739;DHT22;20063;51.730;11.110;2023-02-28T06:39:17;-0.40;99.90
33739;DHT22;20063;51.730;11.110;2023-02-28T06:41:43;-0.40;99.90
33739;DHT22;20063;51.730;11.110;2023-02-28T06:44:15;-0.40;99.90
33739;DHT22;20063;51.730;11.110;2023-02-28T06:46:43;-0.40;99.90
33739;DHT22;20063;51.730;11.110;2023-02-28T06:49:09;-0.40;99.90
33739;DHT22;20063;51.730;11.110;2023-02-28T06:51:40;-0.40;99.90
33739;DHT22;20063;51.730;11.110;2023-02-28T06:54:07;-0.40;99.90
33739;DHT22;20063;51.730;11.110;2023-02-28T06:56:36;-0.30;99.90
33739;DHT22;20063;51.730;11.110;2023-02-28T06:59:02;-0.30;99.90
33739;DHT22;20063;51.730;11.110;2023-02-28T07:01:29;-0.30;99.90
33739;DHT22;20063;51.730;11.110;2023-02-28T07:03:54;-0.30;99.90
33739;DHT22;20063;51.730;11.110;2023-02-28T07:06:24;-0.20;99.90
33739;DHT22;20063;51.730;11.110;2023-02-28T07:08:51;-0.20;99.90
33739;DHT22;20063;51.730;11.110;2023-02-28T07:11:18;-0.10;99.90
33739;DHT22;20063;51.730;11.110;2023-02-28T07:17:32;0.00;99.90
33739;DHT22;20063;51.730;11.110;2023-02-28T07:19:57;0.10;99.90
33739;DHT22;20063;51.730;11.110;2023-02-28T07:22:23;0.10;99.90
33739;DHT22;20063;51.730;11.110;2023-02-28T07:24:50;0.20;99.90
33739;DHT22;20063;51.730;11.110;2023-02-28T07:27:15;0.20;99.90
33739;DHT22;20063;51.730;11.110;2023-02-28T07:29:49;0.20;99.90
33739;DHT22;20063;51.730;11.110;2023-02-28T07:32:15;0.20;99.90
33739;DHT22;20063;51.730;11.110;2023-02-28T07:34:41;0.20;99.90
33739;DHT22;20063;51.730;11.110;2023-02-28T07:37:07;0.20;99.90
33739;DHT22;20063;51.730;11.110;2023-02-28T07:39:36;0.20;99.90
33739;DHT22;20063;51.730;11.110;2023-02-28T07:42:05;0.20;99.90
33739;DHT22;20063;51.730;11.110;2023-02-28T07:44:31;0.30;99.90
33739;DHT22;20063;51.730;11.110;2023-02-28T07:46:57;0.30;99.90
33739;DHT22;20063;51.730;11.110;2023-02-28T07:49:27;0.40;99.90
33739;DHT22;20063;51.730;11.110;2023-02-28T07:51:55;0.40;99.90
33739;DHT22;20063;51.730;11.110;2023-02-28T07:54:21;0.40;99.90
33739;DHT22;20063;51.730;11.110;2023-02-28T07:56:46;0.40;99.90
33739;DHT22;20063;51.730;11.110;2023-02-28T07:59:12;0.50;99.90
33739;DHT22;20063;51.730;11.110;2023-02-28T08:01:38;0.50;99.90
33739;DHT22;20063;51.730;11.110;2023-02-28T08:04:03;0.50;99.90
33739;DHT22;20063;51.730;11.110;2023-02-28T08:06:29;0.60;99.90
33739;DHT22;20063;51.730;11.110;2023-02-28T08:08:54;0.70;99.90
33739;DHT22;20063;51.730;11.110;2023-02-28T08:11:21;0.70;99.90
33739;DHT22;20063;51.730;11.110;2023-02-28T08:13:47;0.70;99.90
33739;DHT22;20063;51.730;11.110;2023-02-28T08:16:14;0.80;99.90
33739;DHT22;20063;51.730;11.110;2023-02-28T08:18:42;0.80;99.90
33739;DHT22;20063;51.730;11.110;2023-02-28T08:21:09;0.80;99.90
33739;DHT22;20063;51.730;11.110;2023-02-28T08:23:35;0.80;99.90
33739;DHT22;20063;51.730;11.110;2023-02-28T08:26:01;0.80;99.90
33739;DHT22;20063;51.730;11.110;2023-02-28T08:28:27;0.80;99.90
33739;DHT22;20063;51.730;11.110;2023-02-28T08:30:53;0.90;99.90
33739;DHT22;20063;51.730;11.110;2023-02-28T08:33:19;0.90;99.90
33739;DHT22;20063;51.730;11.110;2023-02-28T08:35:44;0.90;99.90
33739;DHT22;20063;51.730;11.110;2023-02-28T08:38:10;0.90;99.90
33739;DHT22;20063;51.730;11.110;2023-02-28T08:40:35;0.90;99.90
33739;DHT22;20063;51.730;11.110;2023-02-28T08:43:01;1.00;99.90
33739;DHT22;20063;51.730;11.110;2023-02-28T08:45:26;1.00;99.90
33739;DHT22;20063;51.730;11.110;2023-02-28T08:47:54;1.00;99.90
33739;DHT22;20063;51.730;11.110;2023-02-28T08:50:20;1.10;99.90
33739;DHT22;20063;51.730;11.110;2023-02-28T08:52:46;1.10;99.90
33739;DHT22;20063;51.730;11.110;2023-02-28T08:55:11;1.10;99.90
33739;DHT22;20063;51.730;11.110;2023-02-28T08:57:37;1.10;99.90
33739;DHT22;20063;51.730;11.110;2023-02-28T09:00:03;1.20;99.90
33739;DHT22;20063;51.730;11.110;2023-02-28T09:02:32;1.20;99.90
33739;DHT22;20063;51.730;11.110;2023-02-28T09:04:59;1.20;99.90
33739;DHT22;20063;51.730;11.110;2023-02-28T09:07:25;1.20;99.90
33739;DHT22;20063;51.730;11.110;2023-02-28T09:09:51;1.40;99.90
33739;DHT22;20063;51.730;11.110;2023-02-28T09:12:24;1.40;99.90
33739;DHT22;20063;51.730;11.110;2023-02-28T09:14:49;1.50;99.90
33739;DHT22;20063;51.730;11.110;2023-02-28T09:17:15;1.50;99.90
33739;DHT22;20063;51.730;11.110;2023-02-28T09:19:41;1.50;99.90
33739;DHT22;20063;51.730;11.110;2023-02-28T09:22:08;1.50;99.90
33739;DHT22;20063;51.730;11.110;2023-02-28T09:24:33;1.50;99.90
33739;DHT22;20063;51.730;11.110;2023-02-28T09:26:59;1.60;99.90
33739;DHT22;20063;51.730;11.110;2023-02-28T09:29:24;1.60;99.90
33739;DHT22;20063;51.730;11.110;2023-02-28T09:31:50;1.60;99.90
33739;DHT22;20063;51.730;11.110;2023-02-28T09:34:15;1.60;99.90
33739;DHT22;20063;51.730;11.110;2023-02-28T09:36:42;1.70;99.90
33739;DHT22;20063;51.730;11.110;2023-02-28T09:39:08;1.70;99.90
33739;DHT22;20063;51.730;11.110;2023-02-28T09:42:01;1.70;99.90
33739;DHT22;20063;51.730;11.110;2023-02-28T09:44:29;1.80;99.90
33739;DHT22;20063;51.730;11.110;2023-02-28T09:47:05;1.90;99.90
33739;DHT22;20063;51.730;11.110;2023-02-28T09:49:47;1.90;99.90
33739;DHT22;20063;51.730;11.110;2023-02-28T09:52:23;2.00;99.90
33739;DHT22;20063;51.730;11.110;2023-02-28T09:54:49;2.00;99.90
33739;DHT22;20063;51.730;11.110;2023-02-28T10:05:18;2.10;99.90
33739;DHT22;20063;51.730;11.110;2023-02-28T10:10:40;2.10;99.90
33739;DHT22;20063;51.730;11.110;2023-02-28T10:15:51;2.20;99.90
33739;DHT22;20063;51.730;11.110;2023-02-28T10:18:23;2.20;99.90
33739;DHT22;20063;51.730;11.110;2023-02-28T10:20:50;2.20;99.90
33739;DHT22;20063;51.730;11.110;2023-02-28T10:23:28;2.20;99.90
33739;DHT22;20063;51.730;11.110;2023-02-28T10:26:15;2.20;99.90
33739;DHT22;20063;51.730;11.110;2023-02-28T10:28:42;2.10;99.90
33739;DHT22;20063;51.730;11.110;2023-02-28T10:31:14;2.10;99.90
33739;DHT22;20063;51.730;11.110;2023-02-28T10:33:41;2.10;99.90
33739;DHT22;20063;51.730;11.110;2023-02-28T10:36:16;2.10;99.90
33739;DHT22;20063;51.730;11.110;2023-02-28T10:38:43;2.00;99.90
33739;DHT22;20063;51.730;11.110;2023-02-28T10:41:30;2.10;99.90
33739;DHT22;20063;51.730;11.110;2023-02-28T10:44:20;2.20;99.90
33739;DHT22;20063;51.730;11.110;2023-02-28T10:46:46;2.20;99.90
33739;DHT22;20063;51.730;11.110;2023-02-28T10:49:45;2.30;99.90
33739;DHT22;20063;51.730;11.110;2023-02-28T10:52:10;2.40;99.90
33739;DHT22;20063;51.730;11.110;2023-02-28T10:54:36;2.40;99.90
33739;DHT22;20063;51.730;11.110;2023-02-28T10:57:19;2.40;99.90
33739;DHT22;20063;51.730;11.110;2023-02-28T10:59:46;2.40;99.90
33739;DHT22;20063;51.730;11.110;2023-02-28T11:02:36;2.50;99.90
33739;DHT22;20063;51.730;11.110;2023-02-28T11:05:21;2.40;99.90
33739;DHT22;20063;51.730;11.110;2023-02-28T11:08:12;2.40;99.90
33739;DHT22;20063;51.730;11.110;2023-02-28T11:10:39;2.40;99.90
33739;DHT22;20063;51.730;11.110;2023-02-28T11:13:05;2.40;99.90
33739;DHT22;20063;51.730;11.110;2023-02-28T11:15:33;2.50;99.90
33739;DHT22;20063;51.730;11.110;2023-02-28T11:20:49;2.60;99.90
33739;DHT22;20063;51.730;11.110;2023-02-28T11:23:17;2.60;99.90
33739;DHT22;20063;51.730;11.110;2023-02-28T11:25:56;2.50;99.90
33739;DHT22;20063;51.730;11.110;2023-02-28T11:28:32;2.60;99.90
33739;DHT22;20063;51.730;11.110;2023-02-28T11:31:06;2.60;99.90
33739;DHT22;20063;51.730;11.110;2023-02-28T11:34:00;2.70;99.90
33739;DHT22;20063;51.730;11.110;2023-02-28T11:36:31;2.70;99.90
33739;DHT22;20063;51.730;11.110;2023-02-28T11:38:59;2.70;99.90
33739;DHT22;20063;51.730;11.110;2023-02-28T11:46:51;2.70;99.90
33739;DHT22;20063;51.730;11.110;2023-02-28T11:49:51;2.80;99.90
33739;DHT22;20063;51.730;11.110;2023-02-28T11:55:37;2.80;99.90
33739;DHT22;20063;51.730;11.110;2023-02-28T11:58:15;2.80;99.90
33739;DHT22;20063;51.730;11.110;2023-02-28T12:06:13;2.80;99.90
33739;DHT22;20063;51.730;11.110;2023-02-28T12:17:13;2.90;99.90
33739;DHT22;20063;51.730;11.110;2023-02-28T12:28:25;3.00;99.90
33739;DHT22;20063;51.730;11.110;2023-02-28T12:31:04;3.00;99.90
33739;DHT22;20063;51.730;11.110;2023-02-28T12:33:45;3.00;99.90
33739;DHT22;20063;51.730;11.110;2023-02-28T12:36:14;3.00;99.90
33739;DHT22;20063;51.730;11.110;2023-02-28T12:38:56;3.10;99.90
33739;DHT22;20063;51.730;11.110;2023-02-28T12:41:45;3.20;99.90
33739;DHT22;20063;51.730;11.110;2023-02-28T12:44:14;3.30;99.90
33739;DHT22;20063;51.730;11.110;2023-02-28T12:46:51;3.40;99.90
33739;DHT22;20063;51.730;11.110;2023-02-28T12:49:45;3.40;99.90
33739;DHT22;20063;51.730;11.110;2023-02-28T12:58:29;3.40;99.90
33739;DHT22;20063;51.730;11.110;2023-02-28T13:09:24;3.70;99.90
33739;DHT22;20063;51.730;11.110;2023-02-28T13:11:51;3.70;99.90
33739;DHT22;20063;51.730;11.110;2023-02-28T13:14:35;3.70;99.90
33739;DHT22;20063;51.730;11.110;2023-02-28T13:19:34;3.90;99.90
33739;DHT22;20063;51.730;11.110;2023-02-28T13:22:01;3.90;99.90
33739;DHT22;20063;51.730;11.110;2023-02-28T13:27:41;4.00;99.90
33739;DHT22;20063;51.730;11.110;2023-02-28T13:36:30;4.00;99.90
33739;DHT22;20063;51.730;11.110;2023-02-28T13:39:01;3.90;99.90
33739;DHT22;20063;51.730;11.110;2023-02-28T13:46:36;3.80;99.90
33739;DHT22;20063;51.730;11.110;2023-02-28T13:57:39;3.80;99.90
33739;DHT22;20063;51.730;11.110;2023-02-28T14:05:46;3.60;99.90
33739;DHT22;20063;51.730;11.110;2023-02-28T14:08:20;3.50;99.90
33739;DHT22;20063;51.730;11.110;2023-02-28T14:11:03;3.50;99.90
33739;DHT22;20063;51.730;11.110;2023-02-28T14:13:44;3.50;99.90
33739;DHT22;20063;51.730;11.110;2023-02-28T14:16:20;3.60;99.90
33739;DHT22;20063;51.730;11.110;2023-02-28T14:19:22;3.60;99.90
33739;DHT22;20063;51.730;11.110;2023-02-28T14:30:59;4.10;99.90
33739;DHT22;20063;51.730;11.110;2023-02-28T14:36:14;4.70;99.90
33739;DHT22;20063;51.730;11.110;2023-02-28T14:38:57;4.80;99.90
33739;DHT22;20063;51.730;11.110;2023-02-28T14:41:36;4.70;99.90
33739;DHT22;20063;51.730;11.110;2023-02-28T14:46:42;4.50;99.90
33739;DHT22;20063;51.730;11.110;2023-02-28T14:49:44;4.50;99.90
33739;DHT22;20063;51.730;11.110;2023-02-28T14:52:25;4.50;99.90
33739;DHT22;20063;51.730;11.110;2023-02-28T14:55:05;4.40;99.90
33739;DHT22;20063;51.730;11.110;2023-02-28T14:57:41;4.30;99.90
33739;DHT22;20063;51.730;11.110;2023-02-28T15:00:24;4.30;99.90
33739;DHT22;20063;51.730;11.110;2023-02-28T15:02:50;4.20;99.90
33739;DHT22;20063;51.730;11.110;2023-02-28T15:05:28;4.30;99.90
33739;DHT22;20063;51.730;11.110;2023-02-28T15:10:32;4.40;99.90
33739;DHT22;20063;51.730;11.110;2023-02-28T15:13:00;4.60;99.90
33739;DHT22;20063;51.730;11.110;2023-02-28T15:18:01;5.10;99.90
33739;DHT22;20063;51.730;11.110;2023-02-28T15:20:28;5.40;99.90
33739;DHT22;20063;51.730;11.110;2023-02-28T15:22:55;5.60;99.90
33739;DHT22;20063;51.730;11.110;2023-02-28T15:25:22;5.80;99.90
33739;DHT22;20063;51.730;11.110;2023-02-28T15:27:50;5.90;99.90
33739;DHT22;20063;51.730;11.110;2023-02-28T15:30:30;5.80;99.90
33739;DHT22;20063;51.730;11.110;2023-02-28T15:33:18;5.80;99.90
33739;DHT22;20063;51.730;11.110;2023-02-28T15:35:45;5.70;99.90
33739;DHT22;20063;51.730;11.110;2023-02-28T15:38:25;5.70;99.90
33739;DHT22;20063;51.730;11.110;2023-02-28T15:40:56;5.60;99.90
33739;DHT22;20063;51.730;11.110;2023-02-28T15:43:29;5.60;99.90
33739;DHT22;20063;51.730;11.110;2023-02-28T15:46:15;5.50;99.90
33739;DHT22;20063;51.730;11.110;2023-02-28T15:48:51;5.40;99.90
33739;DHT22;20063;51.730;11.110;2023-02-28T15:56:33;5.00;99.90
33739;DHT22;20063;51.730;11.110;2023-02-28T15:59:01;4.80;99.90
33739;DHT22;20063;51.730;11.110;2023-02-28T16:01:29;4.70;99.90
33739;DHT22;20063;51.730;11.110;2023-02-28T16:03:59;4.50;99.90
33739;DHT22;20063;51.730;11.110;2023-02-28T16:06:38;4.30;99.90
33739;DHT22;20063;51.730;11.110;2023-02-28T16:09:05;4.20;99.90
33739;DHT22;20063;51.730;11.110;2023-02-28T16:11:35;4.00;99.90
33739;DHT22;20063;51.730;11.110;2023-02-28T16:14:02;3.80;99.90
33739;DHT22;20063;51.730;11.110;2023-02-28T16:16:29;3.70;99.90
33739;DHT22;20063;51.730;11.110;2023-02-28T16:18:56;3.60;99.90
33739;DHT22;20063;51.730;11.110;2023-02-28T16:21:21;3.60;99.90
33739;DHT22;20063;51.730;11.110;2023-02-28T16:23:47;3.50;99.90
33739;DHT22;20063;51.730;11.110;2023-02-28T16:26:21;3.50;99.90
33739;DHT22;20063;51.730;11.110;2023-02-28T16:28:48;3.40;99.90
33739;DHT22;20063;51.730;11.110;2023-02-28T16:31:14;3.40;99.90
33739;DHT22;20063;51.730;11.110;2023-02-28T16:33:43;3.30;99.90
33739;DHT22;20063;51.730;11.110;2023-02-28T16:36:16;3.30;99.90
33739;DHT22;20063;51.730;11.110;2023-02-28T16:38:42;3.20;99.90
33739;DHT22;20063;51.730;11.110;2023-02-28T16:41:17;3.20;99.90
33739;DHT22;20063;51.730;11.110;2023-02-28T16:43:49;3.10;99.90
33739;DHT22;20063;51.730;11.110;2023-02-28T16:46:18;3.00;99.90
33739;DHT22;20063;51.730;11.110;2023-02-28T16:48:45;2.80;99.90
33739;DHT22;20063;51.730;11.110;2023-02-28T16:51:17;2.70;99.90
33739;DHT22;20063;51.730;11.110;2023-02-28T16:53:44;2.50;99.90
33739;DHT22;20063;51.730;11.110;2023-02-28T16:56:21;2.30;99.90
33739;DHT22;20063;51.730;11.110;2023-02-28T16:58:48;2.20;99.90
33739;DHT22;20063;51.730;11.110;2023-02-28T17:01:16;2.10;99.90
33739;DHT22;20063;51.730;11.110;2023-02-28T17:03:41;1.90;99.90
33739;DHT22;20063;51.730;11.110;2023-02-28T17:06:28;1.90;99.90
33739;DHT22;20063;51.730;11.110;2023-02-28T17:08:54;1.70;99.90
33739;DHT22;20063;51.730;11.110;2023-02-28T17:11:21;1.60;99.90
33739;DHT22;20063;51.730;11.110;2023-02-28T17:13:47;1.50;99.90
33739;DHT22;20063;51.730;11.110;2023-02-28T17:16:22;1.40;99.90
33739;DHT22;20063;51.730;11.110;2023-02-28T17:18:50;1.40;99.90
33739;DHT22;20063;51.730;11.110;2023-02-28T17:21:16;1.30;99.90
33739;DHT22;20063;51.730;11.110;2023-02-28T17:23:42;1.30;99.90
33739;DHT22;20063;51.730;11.110;2023-02-28T17:26:15;1.20;99.90
33739;DHT22;20063;51.730;11.110;2023-02-28T17:28:43;1.10;99.90
33739;DHT22;20063;51.730;11.110;2023-02-28T17:31:09;1.10;99.90
33739;DHT22;20063;51.730;11.110;2023-02-28T17:33:35;1.00;99.90
33739;DHT22;20063;51.730;11.110;2023-02-28T17:36:01;1.00;99.90
33739;DHT22;20063;51.730;11.110;2023-02-28T17:38:30;1.00;99.90
33739;DHT22;20063;51.730;11.110;2023-02-28T17:40:59;0.90;99.90
33739;DHT22;20063;51.730;11.110;2023-02-28T17:43:26;0.90;99.90
33739;DHT22;20063;51.730;11.110;2023-02-28T17:45:52;0.80;99.90
33739;DHT22;20063;51.730;11.110;2023-02-28T17:48:18;0.80;99.90
33739;DHT22;20063;51.730;11.110;2023-02-28T17:50:45;0.70;99.90
33739;DHT22;20063;51.730;11.110;2023-02-28T17:53:11;0.70;99.90
33739;DHT22;20063;51.730;11.110;2023-02-28T17:55:36;0.60;99.90
33739;DHT22;20063;51.730;11.110;2023-02-28T17:58:03;0.60;99.90
33739;DHT22;20063;51.730;11.110;2023-02-28T18:00:29;0.60;99.90
33739;DHT22;20063;51.730;11.110;2023-02-28T18:02:57;0.60;99.90
33739;DHT22;20063;51.730;11.110;2023-02-28T18:05:23;0.50;99.90
33739;DHT22;20063;51.730;11.110;2023-02-28T18:07:48;0.50;99.90
33739;DHT22;20063;51.730;11.110;2023-02-28T18:10:16;0.50;99.90
33739;DHT22;20063;51.730;11.110;2023-02-28T18:12:49;0.50;99.90
33739;DHT22;20063;51.730;11.110;2023-02-28T18:15:16;0.50;99.90
33739;DHT22;20063;51.730;11.110;2023-02-28T18:17:42;0.50;99.90
33739;DHT22;20063;51.730;11.110;2023-02-28T18:20:10;0.50;99.90
33739;DHT22;20063;51.730;11.110;2023-02-28T18:22:38;0.50;99.90
33739;DHT22;20063;51.730;11.110;2023-02-28T18:25:05;0.50;99.90